createdAt,value
2018-07-23T00:01:55.071Z,24.37
2018-07-23T00:04:23.674Z,19.77
2018-07-23T00:06:53.260Z,18.62
2018-07-23T00:09:21.875Z,21.33
2018-07-23T00:11:50.501Z,14.90
2018-07-23T00:14:19.206Z,21.95
2018-07-23T00:16:47.826Z,26.70
2018-07-23T00:19:16.631Z,25.37
2018-07-23T00:21:45.322Z,28.77
2018-07-23T00:24:14.191Z,21.17
2018-07-23T00:26:42.812Z,24.18
2018-07-23T00:29:11.463Z,38.97
2018-07-23T00:31:40.230Z,28.52
2018-07-23T00:34:08.885Z,42.83
2018-07-23T00:36:38.654Z,25.92
2018-07-23T00:39:08.373Z,27.58
2018-07-23T00:41:37.324Z,34.78
2018-07-23T00:44:06.129Z,30.92
2018-07-23T00:46:35.735Z,38.92
2018-07-23T00:49:04.330Z,23.80
2018-07-23T00:51:33.054Z,16.80
2018-07-23T00:54:02.658Z,18.97
2018-07-23T00:56:31.412Z,17.05
2018-07-23T00:59:00.117Z,22.07
2018-07-23T01:01:29.956Z,13.62
2018-07-23T01:03:59.401Z,15.28
2018-07-23T01:06:28.388Z,27.05
2018-07-23T01:08:58.091Z,19.17
2018-07-23T01:11:26.377Z,24.00
2018-07-23T01:13:54.652Z,25.57
2018-07-23T01:16:22.884Z,26.45
2018-07-23T01:18:51.575Z,32.42
2018-07-23T01:21:20.233Z,24.00
2018-07-23T01:25:57.380Z,38.50
2018-07-23T01:28:27.007Z,45.35
2018-07-23T01:30:55.664Z,46.92
2018-07-23T01:33:26.339Z,69.15
2018-07-23T01:35:57.025Z,74.45
2018-07-23T01:38:25.784Z,75.12
2018-07-23T01:40:54.068Z,77.35
2018-07-23T01:43:22.689Z,52.33
2018-07-23T01:45:51.319Z,77.92
2018-07-23T01:48:19.915Z,56.48
2018-07-23T01:50:49.212Z,76.53
2018-07-23T01:53:18.885Z,67.78
2018-07-23T01:55:48.470Z,70.08
2018-07-23T01:58:17.118Z,70.42
2018-07-23T02:00:46.815Z,68.57
2018-07-23T02:03:15.438Z,31.37
2018-07-23T02:05:44.303Z,37.60
2018-07-23T02:08:12.971Z,59.47
2018-07-23T02:10:42.759Z,70.15
2018-07-23T02:13:12.353Z,84.28
2018-07-23T02:15:40.580Z,124.37
2018-07-23T02:18:09.418Z,122.42
2018-07-23T02:20:39.170Z,149.18
2018-07-23T02:23:09.957Z,154.93
2018-07-23T02:25:38.613Z,194.72
2018-07-23T02:28:07.359Z,190.03
2018-07-23T02:30:36.000Z,247.23
2018-07-23T02:33:04.636Z,209.67
2018-07-23T02:35:33.052Z,158.65
2018-07-23T02:38:01.726Z,291.40
2018-07-23T02:40:30.564Z,150.20
2018-07-23T02:42:59.256Z,275.50
2018-07-23T02:45:28.019Z,265.73
2018-07-23T02:47:56.840Z,233.70
2018-07-23T02:50:26.226Z,218.63
2018-07-23T02:52:55.859Z,249.52
2018-07-23T02:55:24.554Z,224.77
2018-07-23T02:57:54.883Z,229.35
2018-07-23T03:00:23.505Z,213.72
2018-07-23T03:02:52.744Z,167.43
2018-07-23T03:05:21.500Z,127.87
2018-07-23T03:07:50.895Z,171.62
2018-07-23T03:10:19.670Z,116.42
2018-07-23T03:12:48.363Z,151.63
2018-07-23T03:15:17.004Z,207.92
2018-07-23T03:17:45.656Z,214.82
2018-07-23T03:20:14.345Z,259.18
2018-07-23T03:22:43.670Z,223.00
2018-07-23T03:25:12.313Z,248.80
2018-07-23T03:27:41.088Z,253.60
2018-07-23T03:30:09.861Z,301.90
2018-07-23T03:32:38.505Z,336.60
2018-07-23T03:35:08.319Z,269.90
2018-07-23T03:37:37.068Z,286.65
2018-07-23T03:40:06.807Z,265.05
2018-07-23T03:42:35.399Z,277.73
2018-07-23T03:45:04.255Z,283.90
2018-07-23T03:47:32.879Z,291.80
2018-07-23T03:50:01.492Z,298.10
2018-07-23T03:52:31.190Z,172.07
2018-07-23T03:55:00.874Z,260.38
2018-07-23T03:57:29.628Z,237.10
2018-07-23T03:59:58.278Z,242.80
2018-07-23T04:02:28.069Z,226.25
2018-07-23T04:04:57.787Z,292.10
2018-07-23T04:07:26.497Z,283.47
2018-07-23T04:09:55.191Z,151.45
2018-07-23T04:12:24.036Z,223.93
2018-07-23T04:14:53.720Z,260.73
2018-07-23T04:17:22.438Z,281.52
2018-07-23T04:19:51.081Z,268.02
2018-07-23T04:22:21.843Z,271.62
2018-07-23T04:24:51.609Z,321.80
2018-07-23T04:27:20.404Z,320.90
2018-07-23T04:29:49.322Z,343.25
2018-07-23T04:32:18.001Z,464.83
2018-07-23T04:34:46.634Z,404.53
2018-07-23T04:37:16.296Z,326.35
2018-07-23T04:39:44.918Z,319.63
2018-07-23T04:42:13.553Z,247.10
2018-07-23T04:44:42.185Z,245.30
2018-07-23T04:47:11.253Z,62.62
2018-07-23T04:49:39.859Z,113.62
2018-07-23T04:52:08.595Z,146.90
2018-07-23T04:54:38.216Z,148.57
2018-07-23T04:57:06.926Z,150.93
2018-07-23T04:59:35.540Z,151.22
2018-07-23T05:02:04.200Z,154.25
2018-07-23T05:04:34.879Z,149.90
2018-07-23T05:07:03.551Z,167.15
2018-07-23T05:09:32.227Z,167.35
2018-07-23T05:12:01.023Z,173.45
2018-07-23T05:14:29.693Z,159.63
2018-07-23T05:17:00.332Z,165.75
2018-07-23T05:19:28.980Z,154.68
2018-07-23T05:21:57.591Z,162.47
2018-07-23T05:24:27.594Z,220.67
2018-07-23T05:26:57.493Z,176.55
2018-07-23T05:29:26.141Z,225.97
2018-07-23T05:31:55.941Z,188.13
2018-07-23T05:34:24.577Z,225.00
2018-07-23T05:36:53.454Z,232.95
2018-07-23T05:39:22.136Z,236.32
2018-07-23T05:41:50.836Z,197.07
2018-07-23T05:44:19.734Z,213.25
2018-07-23T05:46:48.368Z,196.50
2018-07-23T05:49:17.164Z,193.90
2018-07-23T05:51:50.656Z,236.28
2018-07-23T05:54:19.509Z,227.73
2018-07-23T05:56:48.215Z,203.98
2018-07-23T05:59:16.819Z,138.18
2018-07-23T06:01:45.645Z,167.47
2018-07-23T06:04:15.256Z,198.75
2018-07-23T06:06:43.969Z,208.90
2018-07-23T06:09:15.217Z,161.90
2018-07-23T06:11:43.873Z,161.05
2018-07-23T06:14:12.776Z,194.90
2018-07-23T06:16:41.479Z,197.25
2018-07-23T06:19:11.174Z,168.87
2018-07-23T06:21:40.844Z,232.83
2018-07-23T06:24:09.586Z,240.25
2018-07-23T06:26:39.210Z,291.70
2018-07-23T06:29:07.850Z,290.80
2018-07-23T06:31:37.618Z,197.25
2018-07-23T06:34:06.887Z,205.52
2018-07-23T06:36:35.527Z,190.22
2018-07-23T06:39:06.323Z,198.50
2018-07-23T06:41:36.176Z,207.25
2018-07-23T06:44:04.852Z,233.20
2018-07-23T06:46:33.605Z,263.40
2018-07-23T06:49:03.846Z,265.27
2018-07-23T06:51:32.511Z,285.38
2018-07-23T06:54:01.175Z,273.32
2018-07-23T06:56:30.793Z,228.27
2018-07-23T06:59:01.492Z,213.47
2018-07-23T07:01:30.241Z,221.53
2018-07-23T07:04:03.582Z,180.07
2018-07-23T07:06:32.272Z,239.50
2018-07-23T07:09:00.886Z,258.90
2018-07-23T07:11:29.511Z,229.83
2018-07-23T07:14:00.407Z,204.55
2018-07-23T07:16:29.059Z,218.78
2018-07-23T07:18:58.692Z,246.10
2018-07-23T07:21:27.575Z,262.82
2018-07-23T07:23:56.242Z,259.65
2018-07-23T07:26:24.858Z,274.43
2018-07-23T07:28:53.690Z,295.37
2018-07-23T07:31:22.507Z,321.27
2018-07-23T07:33:51.155Z,347.63
2018-07-23T07:36:20.561Z,326.25
2018-07-23T07:38:49.330Z,267.40
2018-07-23T07:41:19.075Z,216.33
2018-07-23T07:43:47.793Z,287.85
2018-07-23T07:46:16.470Z,292.80
2018-07-23T07:48:45.247Z,234.73
2018-07-23T07:51:14.074Z,209.43
2018-07-23T07:53:42.924Z,251.05
2018-07-23T07:56:11.356Z,183.42
2018-07-23T07:58:40.021Z,152.07
2018-07-23T08:01:09.754Z,140.05
2018-07-23T08:03:40.119Z,91.75
2018-07-23T08:06:13.263Z,106.30
2018-07-23T08:08:42.027Z,129.38
2018-07-23T08:11:11.691Z,145.92
2018-07-23T08:13:41.429Z,164.07
2018-07-23T08:16:10.166Z,140.12
2018-07-23T08:18:38.878Z,113.97
2018-07-23T08:21:09.652Z,99.30
2018-07-23T08:23:38.336Z,124.07
2018-07-23T08:26:08.079Z,139.28
2018-07-23T08:28:36.758Z,133.87
2018-07-23T08:31:05.490Z,124.58
2018-07-23T08:33:34.167Z,122.80
2018-07-23T08:36:02.861Z,134.78
2018-07-23T08:38:31.612Z,124.72
2018-07-23T08:41:00.270Z,97.90
2018-07-23T08:43:29.078Z,134.27
2018-07-23T08:45:57.737Z,85.57
2018-07-23T08:48:26.389Z,83.50
2018-07-23T08:50:55.070Z,109.37
2018-07-23T08:53:23.766Z,71.57
2018-07-23T08:55:53.405Z,68.47
2018-07-23T08:58:22.064Z,66.82
2018-07-23T09:00:51.683Z,70.40
2018-07-23T09:03:20.325Z,39.23
2018-07-23T09:05:50.112Z,50.30
2018-07-23T09:08:18.769Z,39.60
2018-07-23T09:10:47.418Z,62.03
2018-07-23T09:13:18.206Z,51.87
2018-07-23T09:15:47.000Z,62.43
2018-07-23T09:18:16.658Z,50.30
2018-07-23T09:20:48.928Z,50.05
2018-07-23T09:25:59.154Z,72.53
2018-07-23T09:28:27.819Z,73.27
2018-07-23T09:30:56.730Z,58.00
2018-07-23T09:33:25.873Z,54.93
2018-07-23T09:35:54.785Z,73.50
2018-07-23T09:38:25.595Z,75.42
2018-07-23T09:40:54.318Z,71.72
2018-07-23T09:43:24.170Z,40.20
2018-07-23T09:45:52.816Z,91.15
2018-07-23T09:48:21.518Z,56.45
2018-07-23T09:50:53.269Z,31.65
2018-07-23T09:53:22.011Z,56.43
2018-07-23T09:55:50.719Z,49.67
2018-07-23T09:58:19.457Z,51.28
2018-07-23T10:00:53.286Z,32.65
2018-07-23T10:03:22.155Z,39.03
2018-07-23T10:05:50.812Z,23.62
2018-07-23T10:08:19.490Z,23.12
2018-07-23T10:10:48.214Z,18.60
2018-07-23T10:13:17.902Z,17.95
2018-07-23T10:15:46.672Z,24.77
2018-07-23T10:18:16.410Z,32.88
2018-07-23T10:20:46.101Z,37.45
2018-07-23T10:23:14.451Z,43.67
2018-07-23T10:25:43.157Z,54.75
2018-07-23T10:28:11.786Z,22.75
2018-07-23T10:30:41.583Z,22.40
2018-07-23T10:33:10.308Z,24.82
2018-07-23T10:35:39.105Z,21.40
2018-07-23T10:38:08.865Z,18.20
2018-07-23T10:40:37.571Z,41.75
2018-07-23T10:43:06.261Z,95.22
2018-07-23T10:45:35.051Z,95.95
2018-07-23T10:48:03.894Z,99.00
2018-07-23T10:50:36.681Z,166.62
2018-07-23T10:53:06.569Z,207.57
2018-07-23T10:55:35.474Z,203.07
2018-07-23T10:58:04.237Z,221.65
2018-07-23T11:00:34.008Z,446.03
2018-07-23T11:03:02.765Z,432.65
2018-07-23T11:05:31.643Z,483.20
2018-07-23T11:08:00.478Z,320.57
2018-07-23T11:10:29.208Z,384.55
2018-07-23T11:12:58.091Z,514.40
2018-07-23T11:15:26.804Z,370.67
2018-07-23T11:20:42.278Z,86.50
2018-07-23T11:23:12.645Z,18.57
2018-07-23T11:25:43.356Z,23.47
2018-07-23T11:28:12.716Z,14.85
2018-07-23T11:30:46.829Z,15.08
2018-07-23T11:33:25.605Z,14.70
2018-07-23T11:35:54.899Z,13.18
2018-07-23T11:38:25.405Z,11.03
2018-07-23T11:40:57.285Z,15.63
2018-07-23T11:43:27.735Z,19.53
2018-07-23T11:45:58.669Z,13.65
2018-07-23T11:48:29.655Z,14.07
2018-07-23T11:59:38.979Z,20.82
2018-07-23T12:02:08.333Z,17.32
2018-07-23T12:04:37.246Z,14.68
2018-07-23T12:07:07.346Z,28.32
2018-07-23T12:09:36.142Z,21.45
2018-07-23T12:12:04.887Z,47.13
2018-07-23T12:14:33.580Z,73.92
2018-07-23T12:17:02.335Z,91.42
2018-07-23T12:19:31.061Z,100.90
2018-07-23T12:21:59.770Z,109.00
2018-07-23T12:24:28.470Z,13.80
2018-07-23T12:26:57.098Z,6.42
2018-07-23T12:29:25.753Z,7.40
2018-07-23T12:31:54.422Z,8.90
2018-07-23T12:34:23.177Z,8.70
2018-07-23T12:36:51.817Z,7.40
2018-07-23T12:39:20.712Z,8.37
2018-07-23T12:41:49.502Z,10.88
2018-07-23T12:44:18.184Z,19.62
2018-07-23T12:46:46.979Z,19.97
2018-07-23T12:49:15.600Z,25.75
2018-07-23T12:51:44.296Z,11.80
2018-07-23T12:54:13.981Z,11.00
2018-07-23T12:56:42.629Z,22.02
2018-07-23T12:59:11.067Z,50.90
2018-07-23T13:01:39.823Z,51.10
2018-07-23T13:04:08.506Z,282.43
2018-07-23T13:06:37.220Z,335.57
2018-07-23T13:09:10.074Z,349.18
2018-07-23T13:11:38.764Z,121.90
2018-07-23T13:14:07.523Z,52.62
2018-07-23T13:16:36.646Z,128.97
2018-07-23T13:19:06.105Z,150.82
2018-07-23T13:21:34.776Z,135.65
2018-07-23T13:24:04.544Z,314.60
2018-07-23T13:26:33.342Z,382.10
2018-07-23T13:29:02.046Z,395.07
2018-07-23T13:31:30.732Z,355.67
2018-07-23T13:33:59.420Z,77.20
2018-07-23T13:36:28.291Z,28.65
2018-07-23T13:38:58.138Z,42.05
2018-07-23T13:41:28.364Z,335.77
2018-07-23T13:43:57.326Z,32.33
2018-07-23T13:46:30.345Z,13.10
2018-07-23T13:48:59.239Z,6.83
2018-07-23T13:51:29.139Z,8.90
2018-07-23T13:53:58.631Z,8.93
2018-07-23T13:56:27.684Z,26.67
2018-07-23T13:58:56.406Z,18.83
2018-07-23T14:01:25.261Z,5.40
2018-07-23T14:03:54.978Z,7.70
2018-07-23T14:06:23.326Z,5.42
2018-07-23T14:08:52.064Z,5.67
2018-07-23T14:11:21.747Z,392.70
2018-07-23T14:13:50.543Z,490.30
2018-07-23T14:16:19.300Z,594.00
2018-07-23T14:18:48.104Z,618.40
2018-07-23T14:21:16.725Z,288.20
2018-07-23T14:23:49.665Z,212.93
2018-07-23T14:26:18.375Z,184.10
2018-07-23T14:28:47.361Z,223.28
2018-07-23T14:31:16.136Z,289.63
2018-07-23T14:33:44.835Z,251.10
2018-07-23T14:36:13.528Z,6.17
2018-07-23T14:38:42.283Z,6.27
2018-07-23T14:41:10.902Z,7.05
2018-07-23T14:43:39.558Z,269.43
2018-07-23T14:46:08.314Z,272.40
2018-07-23T14:48:37.502Z,314.12
2018-07-23T14:51:06.439Z,224.73
2018-07-23T14:53:35.221Z,291.98
2018-07-23T14:56:03.909Z,292.15
2018-07-23T14:58:32.499Z,363.47
2018-07-23T15:01:01.144Z,6.60
2018-07-23T15:03:30.008Z,7.30
2018-07-23T15:05:58.580Z,365.07
2018-07-23T15:08:28.292Z,361.80
2018-07-23T15:10:56.939Z,364.88
2018-07-23T15:13:25.621Z,384.20
2018-07-23T15:15:54.450Z,382.53
2018-07-23T15:18:23.219Z,397.80
2018-07-23T15:20:52.037Z,376.30
2018-07-23T15:23:21.599Z,367.95
2018-07-23T15:25:50.417Z,396.68
2018-07-23T15:28:19.108Z,380.42
2018-07-23T15:30:47.893Z,399.58
2018-07-23T15:33:16.692Z,440.15
2018-07-23T15:35:46.306Z,409.10
2018-07-23T15:38:16.000Z,441.60
2018-07-23T15:40:45.778Z,468.13
2018-07-23T15:43:14.449Z,495.92
2018-07-23T15:45:43.420Z,442.83
2018-07-23T15:48:11.971Z,444.73
2018-07-23T15:50:41.719Z,8.88
2018-07-23T15:53:20.320Z,7.50
2018-07-23T15:55:51.086Z,300.20
2018-07-23T15:58:20.919Z,398.40
2018-07-23T16:00:50.584Z,407.27
2018-07-23T16:03:19.375Z,411.37
2018-07-23T16:05:48.927Z,416.40
2018-07-23T16:08:18.661Z,419.20
2018-07-23T16:10:59.473Z,399.25
2018-07-23T16:16:18.961Z,465.65
2018-07-23T16:18:47.914Z,484.37
2018-07-23T16:21:19.894Z,495.43
2018-07-23T16:23:49.743Z,465.58
2018-07-23T16:26:19.257Z,415.75
2018-07-23T16:28:48.639Z,489.35
2018-07-23T16:31:17.479Z,479.85
2018-07-23T16:33:50.257Z,461.28
2018-07-23T16:36:18.950Z,477.62
2018-07-23T16:38:48.693Z,462.27
2018-07-23T16:41:17.461Z,461.35
2018-07-23T16:43:46.490Z,462.35
2018-07-23T16:46:15.303Z,431.87
2018-07-23T16:48:52.800Z,448.23
2018-07-23T16:51:28.423Z,473.02
2018-07-23T16:54:02.002Z,469.07
2018-07-23T16:59:43.921Z,469.77
2018-07-23T17:05:08.560Z,9.50
2018-07-23T17:27:43.464Z,8.48
2018-07-23T17:30:29.648Z,8.93
2018-07-23T17:35:49.667Z,8.30
2018-07-23T17:38:18.376Z,8.80
2018-07-23T17:40:48.046Z,8.23
2018-07-23T17:43:16.719Z,8.13
2018-07-23T17:45:45.444Z,8.15
2018-07-23T17:48:15.392Z,8.10
2018-07-23T17:50:54.752Z,354.77
2018-07-23T17:53:23.492Z,333.75
2018-07-23T17:55:51.798Z,336.45
2018-07-23T17:58:20.541Z,434.55
2018-07-23T18:00:49.935Z,8.88
2018-07-23T18:03:20.411Z,9.30
2018-07-23T18:05:49.437Z,9.53
2018-07-23T18:08:19.255Z,387.10
2018-07-23T18:10:48.876Z,397.55
2018-07-23T18:19:12.944Z,17.60
2018-07-23T18:27:31.522Z,453.02
2018-07-23T18:30:11.155Z,473.50
2018-07-23T18:33:01.437Z,482.05
2018-07-23T18:35:50.569Z,492.42
2018-07-23T18:38:19.279Z,556.20
2018-07-23T18:40:48.020Z,562.88
2018-07-23T18:43:17.008Z,571.90
2018-07-23T18:45:46.841Z,588.22
2018-07-23T18:49:29.558Z,577.52
2018-07-23T18:51:58.337Z,572.93
2018-07-23T18:54:29.700Z,575.92
2018-07-23T18:57:00.673Z,587.27
2018-07-23T18:59:29.385Z,11.43
2018-07-23T19:01:58.690Z,13.30
2018-07-23T19:04:27.367Z,12.53
2018-07-23T19:06:56.062Z,14.00
2018-07-23T19:09:26.618Z,13.95
2018-07-23T19:11:56.138Z,12.87
2018-07-23T19:14:25.923Z,13.38
2018-07-23T19:16:56.051Z,14.50
2018-07-23T19:19:25.432Z,15.03
2018-07-23T19:21:54.315Z,14.93
2018-07-23T19:24:23.347Z,14.80
2018-07-23T19:26:52.440Z,13.73
2018-07-23T19:29:22.830Z,14.03
2018-07-23T19:31:56.152Z,14.70
2018-07-23T19:34:25.247Z,14.00
2018-07-23T19:36:53.949Z,13.03
2018-07-23T19:39:22.957Z,13.28
2018-07-23T19:41:51.680Z,12.83
2018-07-23T19:44:27.946Z,505.50
2018-07-23T19:46:57.646Z,590.05
2018-07-23T19:49:27.708Z,615.05
2018-07-23T19:51:56.403Z,632.23
2018-07-23T19:54:25.097Z,642.65
2018-07-23T19:56:53.777Z,666.17
2018-07-23T19:59:22.647Z,685.78
2018-07-23T20:01:53.333Z,656.50
2018-07-23T20:04:22.134Z,663.00
2018-07-23T20:06:51.786Z,656.00
2018-07-23T20:09:20.424Z,686.67
2018-07-23T20:11:49.771Z,703.05
2018-07-23T20:14:18.507Z,684.37
2018-07-23T20:16:46.821Z,706.75
2018-07-23T20:19:15.504Z,736.52
2018-07-23T20:21:44.263Z,714.05
2018-07-23T20:24:13.088Z,751.58
2018-07-23T20:26:41.750Z,759.83
2018-07-23T20:29:11.581Z,765.90
2018-07-23T20:31:39.972Z,778.80
2018-07-23T20:34:08.684Z,823.27
2018-07-23T20:36:37.386Z,777.08
2018-07-23T20:39:07.597Z,705.52
2018-07-23T20:41:36.271Z,692.33
2018-07-23T20:44:05.097Z,733.47
2018-07-23T20:46:33.793Z,690.65
2018-07-23T20:49:02.875Z,643.75
2018-07-23T20:51:31.666Z,698.42
2018-07-23T20:54:00.222Z,660.52
2018-07-23T20:56:28.910Z,657.77
2018-07-23T20:58:57.944Z,673.17
2018-07-23T21:01:26.630Z,674.45
2018-07-23T21:03:55.339Z,693.42
2018-07-23T21:06:24.026Z,717.60
2018-07-23T21:08:52.355Z,713.58
2018-07-23T21:11:21.179Z,732.83
2018-07-23T21:13:50.019Z,733.05
2018-07-23T21:16:18.675Z,737.98
2018-07-23T21:18:47.396Z,711.37
2018-07-23T21:21:16.101Z,707.25
2018-07-23T21:23:44.706Z,714.08
2018-07-23T21:26:15.010Z,726.93
2018-07-23T21:28:43.826Z,717.17
2018-07-23T21:31:12.749Z,699.43
2018-07-23T21:33:41.920Z,640.88
2018-07-23T21:36:12.672Z,549.93
2018-07-23T21:38:41.327Z,482.23
2018-07-23T21:41:09.990Z,452.28
2018-07-23T21:43:38.691Z,446.90
2018-07-23T21:46:07.339Z,553.12
2018-07-23T21:48:36.233Z,485.37
2018-07-23T21:51:04.948Z,526.75
2018-07-23T21:53:33.580Z,522.80
2018-07-23T21:56:02.266Z,551.15
2018-07-23T21:58:31.185Z,563.00
2018-07-23T22:01:01.001Z,569.83
2018-07-23T22:03:29.686Z,596.30
2018-07-23T22:05:58.408Z,574.62
2018-07-23T22:08:26.704Z,537.42
2018-07-23T22:10:55.370Z,550.33
2018-07-23T22:13:24.230Z,539.40
2018-07-23T22:15:52.963Z,531.97
2018-07-23T22:18:22.327Z,539.25
2018-07-23T22:20:52.221Z,587.50
2018-07-23T22:23:21.651Z,599.02
2018-07-23T22:25:50.309Z,618.20
2018-07-23T22:28:19.022Z,627.15
2018-07-23T22:30:48.824Z,651.65
2018-07-23T22:33:17.487Z,624.85
2018-07-23T22:35:46.136Z,653.10
2018-07-23T22:38:14.854Z,606.05
2018-07-23T22:40:43.477Z,593.42
2018-07-23T22:43:12.360Z,621.72
2018-07-23T22:45:41.169Z,611.95
2018-07-23T22:48:09.886Z,599.27
2018-07-23T22:50:39.986Z,573.85
2018-07-23T22:53:08.630Z,600.10
2018-07-23T22:55:37.254Z,580.23
2018-07-23T22:58:06.784Z,563.67
2018-07-23T23:00:35.516Z,575.90
2018-07-23T23:03:04.311Z,580.08
2018-07-23T23:05:33.313Z,15.93
2018-07-23T23:08:01.997Z,17.92
2018-07-23T23:10:30.650Z,46.73
2018-07-23T23:12:59.359Z,461.68
2018-07-23T23:15:28.048Z,570.10
2018-07-23T23:17:57.712Z,602.30
2018-07-23T23:20:26.477Z,621.63
2018-07-23T23:22:56.170Z,643.85
2018-07-23T23:25:24.880Z,638.92
2018-07-23T23:27:53.606Z,635.55
2018-07-23T23:30:23.367Z,658.77
2018-07-23T23:32:52.067Z,658.02
2018-07-23T23:35:20.807Z,671.55
2018-07-23T23:37:49.444Z,678.58
2018-07-23T23:40:20.340Z,704.08
2018-07-23T23:42:49.026Z,532.27
2018-07-23T23:45:17.402Z,684.40
2018-07-23T23:47:47.153Z,705.03
2018-07-23T23:50:15.831Z,665.28
2018-07-23T23:52:44.487Z,697.40
2018-07-23T23:55:14.104Z,673.40
2018-07-23T23:57:42.850Z,653.33
